createdAt,value
2022-09-26T00:06:01.304Z,13.60
2022-09-26T00:09:03.798Z,13.70
2022-09-26T00:12:05.589Z,13.60
2022-09-26T00:15:08.289Z,13.50
2022-09-26T00:18:10.164Z,13.50
2022-09-26T00:21:13.795Z,13.50
2022-09-26T00:36:36.921Z,13.40
2022-09-26T00:42:42.389Z,13.40
2022-09-26T00:45:44.411Z,13.40
2022-09-26T00:48:51.946Z,13.30
2022-09-26T00:52:05.546Z,13.30
2022-09-26T00:55:09.907Z,13.30
2022-09-26T00:58:37.832Z,13.20
2022-09-26T01:01:39.869Z,13.30
2022-09-26T01:04:44.251Z,13.20
2022-09-26T01:07:46.749Z,13.00
2022-09-26T01:10:48.624Z,13.20
2022-09-26T01:13:54.465Z,13.20
2022-09-26T01:16:56.681Z,13.10
2022-09-26T01:20:13.354Z,13.20
2022-09-26T01:23:44.763Z,13.20
2022-09-26T01:27:28.489Z,13.20
2022-09-26T01:30:43.125Z,13.10
2022-09-26T01:34:01.850Z,13.20
2022-09-26T01:37:06.903Z,13.30
2022-09-26T01:40:27.244Z,13.20
2022-09-26T01:44:03.819Z,13.30
2022-09-26T01:47:16.785Z,13.40
2022-09-26T01:50:50.710Z,13.40
2022-09-26T01:56:57.364Z,13.40
2022-09-26T02:00:03.987Z,13.40
2022-09-26T02:03:11.797Z,13.40
2022-09-26T02:06:24.441Z,13.40
2022-09-26T02:09:39.960Z,13.30
2022-09-26T02:12:46.224Z,13.30
2022-09-26T02:15:53.180Z,13.30
2022-09-26T02:19:02.617Z,13.40
2022-09-26T02:22:05.038Z,13.30
2022-09-26T02:25:07.586Z,13.40
2022-09-26T02:28:09.522Z,13.40
2022-09-26T02:31:15.054Z,13.30
2022-09-26T02:34:17.036Z,13.40
2022-09-26T02:37:21.064Z,13.40
2022-09-26T02:40:55.439Z,13.40
2022-09-26T02:44:20.041Z,13.40
2022-09-26T02:54:22.379Z,13.50
2022-09-26T02:57:39.233Z,13.50
2022-09-26T03:00:58.168Z,13.40
2022-09-26T03:04:11.122Z,13.40
2022-09-26T03:07:23.332Z,13.40
2022-09-26T03:10:28.224Z,13.40
2022-09-26T03:13:34.987Z,13.40
2022-09-26T03:16:40.281Z,13.30
2022-09-26T03:19:48.250Z,13.30
2022-09-26T03:22:51.219Z,13.30
2022-09-26T03:26:18.218Z,13.40
2022-09-26T03:32:22.388Z,13.30
2022-09-26T03:35:24.278Z,13.30
2022-09-26T03:38:29.274Z,13.30
2022-09-26T03:47:36.117Z,13.40
2022-09-26T03:53:42.794Z,13.50
2022-09-26T03:56:44.682Z,13.50
2022-09-26T03:59:46.634Z,13.60
2022-09-26T04:02:48.525Z,13.50
2022-09-26T04:05:50.383Z,13.50
2022-09-26T04:08:53.036Z,13.50
2022-09-26T04:11:55.082Z,13.50
2022-09-26T04:14:56.959Z,13.60
2022-09-26T04:17:58.840Z,13.50
2022-09-26T04:21:06.747Z,13.50
2022-09-26T04:24:16.262Z,13.50
2022-09-26T04:27:18.480Z,13.40
2022-09-26T04:33:22.630Z,13.50
2022-09-26T04:42:33.280Z,13.50
2022-09-26T04:45:35.222Z,13.50
2022-09-26T04:48:37.366Z,13.50
2022-09-26T04:51:39.261Z,13.60
2022-09-26T05:00:46.771Z,13.50
2022-09-26T05:03:48.965Z,13.40
2022-09-26T05:06:50.826Z,13.50
2022-09-26T05:09:52.704Z,13.50
2022-09-26T05:12:54.588Z,13.50
2022-09-26T05:15:59.798Z,13.50
2022-09-26T05:19:01.801Z,13.50
2022-09-26T05:22:03.770Z,13.50
2022-09-26T05:25:06.222Z,13.60
2022-09-26T05:28:08.154Z,13.50
2022-09-26T05:31:10.079Z,13.50
2022-09-26T05:34:18.515Z,13.70
2022-09-26T05:37:21.684Z,13.70
2022-09-26T05:40:23.627Z,13.70
2022-09-26T05:43:27.901Z,13.80
2022-09-26T05:46:29.809Z,13.70
2022-09-26T05:52:33.998Z,13.70
2022-09-26T05:55:35.940Z,13.80
2022-09-26T05:58:39.716Z,13.70
2022-09-26T06:01:41.693Z,13.70
2022-09-26T06:07:45.945Z,13.90
2022-09-26T06:10:47.825Z,13.90
2022-09-26T06:13:49.741Z,13.90
2022-09-26T06:16:51.772Z,13.90
2022-09-26T06:19:53.690Z,14.00
2022-09-26T06:22:55.533Z,14.00
2022-09-26T06:25:58.333Z,14.00
2022-09-26T06:29:00.385Z,14.00
2022-09-26T06:35:08.062Z,14.10
2022-09-26T06:38:10.066Z,14.20
2022-09-26T06:41:11.918Z,14.20
2022-09-26T06:44:13.766Z,14.40
2022-09-26T06:56:25.459Z,14.90
2022-09-26T07:05:32.334Z,15.60
2022-09-26T07:09:00.294Z,15.80
2022-09-26T07:12:14.221Z,15.90
2022-09-26T07:15:20.606Z,15.80
2022-09-26T07:24:27.440Z,16.00
2022-09-26T07:30:31.638Z,16.10
2022-09-26T07:36:35.777Z,16.50
2022-09-26T07:42:39.968Z,17.00
2022-09-26T07:48:44.146Z,17.00
2022-09-26T07:54:48.769Z,17.10
2022-09-26T07:57:50.618Z,17.10
2022-09-26T08:00:52.516Z,16.60
2022-09-26T08:03:54.379Z,16.60
2022-09-26T08:06:57.097Z,16.40
2022-09-26T08:09:59.366Z,16.40
2022-09-26T08:13:01.239Z,16.50
2022-09-26T08:16:05.193Z,16.90
2022-09-26T08:19:08.236Z,17.30
2022-09-26T08:22:10.691Z,17.50
2022-09-26T08:25:12.464Z,18.00
2022-09-26T08:28:14.339Z,17.80
2022-09-26T08:31:16.283Z,18.40
2022-09-26T08:37:27.962Z,18.30
2022-09-26T08:40:52.149Z,20.10
2022-09-26T08:44:02.675Z,20.10
2022-09-26T08:47:20.133Z,20.90
2022-09-26T08:50:21.893Z,21.40
2022-09-26T08:53:32.094Z,21.70
2022-09-26T08:56:47.912Z,22.50
2022-09-26T08:59:50.891Z,22.30
2022-09-26T09:03:17.446Z,22.20
2022-09-26T09:06:19.721Z,22.10
2022-09-26T09:09:21.643Z,23.70
2022-09-26T09:12:32.235Z,23.80
2022-09-26T09:15:59.533Z,23.30
2022-09-26T09:19:37.479Z,24.40
2022-09-26T09:23:00.687Z,24.20
2022-09-26T09:30:03.413Z,25.20
2022-09-26T09:33:19.807Z,25.50
2022-09-26T09:36:25.338Z,25.20
2022-09-26T09:39:34.387Z,24.70
2022-09-26T09:42:54.381Z,23.90
2022-09-26T09:46:04.151Z,23.70
2022-09-26T09:49:09.070Z,23.60
2022-09-26T09:52:21.896Z,23.30
2022-09-26T09:55:47.096Z,23.30
2022-09-26T09:59:17.908Z,23.20
2022-09-26T10:05:41.754Z,22.80
2022-09-26T10:08:43.577Z,23.20
2022-09-26T10:11:49.150Z,23.40
2022-09-26T10:14:59.803Z,23.20
2022-09-26T10:18:24.156Z,23.20
2022-09-26T10:21:33.736Z,23.10
2022-09-26T10:24:39.844Z,22.80
2022-09-26T10:27:48.322Z,22.60
2022-09-26T10:31:01.445Z,22.30
2022-09-26T10:34:07.048Z,22.30
2022-09-26T10:37:28.975Z,22.60
2022-09-26T10:40:37.990Z,22.60
2022-09-26T10:43:52.973Z,22.80
2022-09-26T10:46:58.608Z,22.70
2022-09-26T10:50:09.778Z,23.00
2022-09-26T10:53:14.811Z,22.90
2022-09-26T10:56:24.098Z,23.20
2022-09-26T10:59:29.127Z,23.10
2022-09-26T11:05:43.155Z,22.40
2022-09-26T11:08:52.676Z,22.50
2022-09-26T11:11:55.672Z,22.50
2022-09-26T11:15:07.134Z,22.60
2022-09-26T11:18:23.343Z,22.00
2022-09-26T11:21:44.183Z,22.40
2022-09-26T11:25:14.979Z,22.60
2022-09-26T11:28:33.689Z,22.90
2022-09-26T11:31:39.396Z,22.90
2022-09-26T11:34:41.360Z,23.00
2022-09-26T11:38:11.008Z,23.50
2022-09-26T11:41:50.924Z,23.30
2022-09-26T11:45:25.290Z,22.30
2022-09-26T11:48:40.753Z,21.80
2022-09-26T11:51:54.133Z,21.90
2022-09-26T11:55:01.894Z,22.10
2022-09-26T11:58:15.712Z,22.70
2022-09-26T12:01:32.016Z,22.80
2022-09-26T12:05:00.584Z,22.90
2022-09-26T12:11:30.387Z,22.30
2022-09-26T12:14:55.329Z,22.30
2022-09-26T12:18:05.052Z,22.20
2022-09-26T12:21:40.273Z,22.20
2022-09-26T12:25:20.371Z,22.30
2022-09-26T12:28:43.557Z,22.40
2022-09-26T12:32:13.100Z,22.80
2022-09-26T12:35:38.561Z,23.70
2022-09-26T12:38:57.953Z,23.60
2022-09-26T12:45:38.219Z,23.80
2022-09-26T12:49:06.936Z,23.70
2022-09-26T12:52:33.511Z,23.60
2022-09-26T12:55:52.775Z,23.60
2022-09-26T12:59:13.422Z,23.80
2022-09-26T13:02:30.213Z,23.90
2022-09-26T13:05:57.021Z,23.70
2022-09-26T13:09:45.108Z,23.20
2022-09-26T13:13:02.316Z,23.30
2022-09-26T13:16:39.220Z,22.80
2022-09-26T13:22:46.282Z,22.80
2022-09-26T13:25:54.165Z,22.80
2022-09-26T13:29:23.510Z,22.80
2022-09-26T13:32:42.681Z,22.80
2022-09-26T13:35:45.226Z,22.80
2022-09-26T13:39:01.888Z,22.30
2022-09-26T13:42:13.429Z,22.10
2022-09-26T13:45:18.005Z,22.10
2022-09-26T13:48:44.152Z,21.80
2022-09-26T13:52:06.934Z,21.80
2022-09-26T13:55:13.734Z,21.40
2022-09-26T13:58:23.047Z,21.20
2022-09-26T14:01:27.097Z,21.10
2022-09-26T14:04:34.893Z,20.70
2022-09-26T14:07:42.559Z,20.70
2022-09-26T14:10:53.344Z,20.90
2022-09-26T14:14:17.126Z,20.90
2022-09-26T14:17:44.080Z,20.90
2022-09-26T14:20:59.164Z,20.80
2022-09-26T14:24:27.722Z,20.70
2022-09-26T14:27:35.736Z,20.70
2022-09-26T14:30:37.719Z,20.70
2022-09-26T14:33:40.677Z,20.50
2022-09-26T14:36:44.367Z,20.40
2022-09-26T14:39:47.040Z,20.30
2022-09-26T14:43:04.909Z,20.30
2022-09-26T14:46:22.942Z,20.30
2022-09-26T14:49:28.224Z,20.30
2022-09-26T14:52:30.634Z,20.20
2022-09-26T14:55:32.447Z,20.10
2022-09-26T14:58:37.106Z,19.80
2022-09-26T15:01:39.191Z,19.80
2022-09-26T15:04:43.637Z,19.80
2022-09-26T15:07:51.377Z,20.20
2022-09-26T15:10:58.205Z,20.30
2022-09-26T15:14:04.905Z,20.30
2022-09-26T15:17:14.830Z,19.60
2022-09-26T15:20:20.519Z,19.50
2022-09-26T15:23:27.630Z,19.70
2022-09-26T15:26:36.801Z,19.50
2022-09-26T15:29:51.933Z,19.40
2022-09-26T15:32:57.973Z,19.60
2022-09-26T15:36:01.383Z,19.80
2022-09-26T15:39:32.241Z,20.10
2022-09-26T15:42:34.144Z,19.80
2022-09-26T15:45:48.341Z,19.60
2022-09-26T15:48:52.098Z,19.20
2022-09-26T15:51:55.590Z,19.00
2022-09-26T15:54:57.608Z,18.40
2022-09-26T15:58:02.247Z,17.90
2022-09-26T16:01:05.352Z,17.80
2022-09-26T16:04:23.703Z,17.60
2022-09-26T16:07:28.822Z,17.50
2022-09-26T16:10:33.201Z,17.30
2022-09-26T16:13:43.060Z,17.20
2022-09-26T16:16:45.022Z,17.20
2022-09-26T16:19:50.875Z,17.00
2022-09-26T16:23:05.384Z,16.90
2022-09-26T16:26:21.631Z,16.70
2022-09-26T16:29:31.935Z,16.70
2022-09-26T16:32:33.858Z,16.20
2022-09-26T16:35:37.477Z,16.20
2022-09-26T16:38:39.468Z,16.10
2022-09-26T16:42:00.637Z,15.90
2022-09-26T16:45:05.477Z,15.90
2022-09-26T16:48:38.267Z,15.80
2022-09-26T16:51:40.223Z,15.60
2022-09-26T16:54:42.158Z,15.50
2022-09-26T16:58:01.757Z,15.40
2022-09-26T17:01:03.746Z,15.40
2022-09-26T17:04:12.322Z,15.20
2022-09-26T17:07:15.628Z,15.20
2022-09-26T17:10:19.642Z,15.10
2022-09-26T17:13:24.018Z,15.00
2022-09-26T17:16:26.590Z,15.00
2022-09-26T17:19:30.155Z,15.00
2022-09-26T17:25:34.676Z,15.00
2022-09-26T17:28:39.720Z,15.10
2022-09-26T17:46:56.026Z,14.70
2022-09-26T17:53:01.690Z,14.60
2022-09-26T17:59:16.178Z,14.60
2022-09-26T18:02:30.368Z,14.60
2022-09-26T18:05:35.545Z,14.60
2022-09-26T18:08:38.132Z,14.50
2022-09-26T18:11:39.926Z,14.40
2022-09-26T18:14:42.553Z,14.50
2022-09-26T18:17:44.454Z,14.50
2022-09-26T18:23:53.304Z,14.50
2022-09-26T18:26:56.796Z,14.50
2022-09-26T18:29:58.914Z,14.50
2022-09-26T18:36:03.690Z,14.40
2022-09-26T18:42:10.778Z,14.40
2022-09-26T18:45:23.261Z,14.50
2022-09-26T18:48:28.162Z,14.50
2022-09-26T18:51:30.081Z,14.40
2022-09-26T18:54:33.507Z,14.50
2022-09-26T18:57:35.486Z,14.50
2022-09-26T19:03:46.095Z,14.40
2022-09-26T19:06:54.209Z,14.40
2022-09-26T19:09:56.440Z,14.30
2022-09-26T19:22:14.885Z,14.20
2022-09-26T19:25:17.856Z,14.20
2022-09-26T19:28:24.257Z,14.10
2022-09-26T19:34:32.785Z,14.10
2022-09-26T19:37:34.841Z,14.10
2022-09-26T19:46:43.704Z,14.00
2022-09-26T19:49:51.457Z,14.00
2022-09-26T19:52:55.620Z,13.90
2022-09-26T19:58:59.764Z,13.80
2022-09-26T20:05:22.756Z,13.70
2022-09-26T20:08:26.519Z,13.60
2022-09-26T20:11:28.451Z,13.60
2022-09-26T20:14:30.345Z,13.60
2022-09-26T20:17:32.300Z,13.60
2022-09-26T20:20:35.876Z,13.60
2022-09-26T20:23:37.809Z,13.60
2022-09-26T20:32:44.255Z,13.30
2022-09-26T20:35:47.387Z,13.20
2022-09-26T20:38:51.252Z,13.10
2022-09-26T20:44:55.551Z,13.10
2022-09-26T20:47:58.913Z,13.00
2022-09-26T20:51:02.567Z,13.10
2022-09-26T20:54:05.204Z,13.10
2022-09-26T20:57:07.983Z,13.10
2022-09-26T21:00:17.820Z,13.10
2022-09-26T21:03:20.283Z,13.10
2022-09-26T21:06:23.030Z,13.20
2022-09-26T21:15:31.493Z,13.20
2022-09-26T21:21:35.712Z,13.10
2022-09-26T21:24:38.045Z,13.10
2022-09-26T21:30:43.264Z,13.20
2022-09-26T21:33:45.478Z,13.20
2022-09-26T21:39:50.606Z,13.10
2022-09-26T21:42:54.551Z,13.00
2022-09-26T21:45:56.408Z,13.00
2022-09-26T21:52:12.186Z,12.60
2022-09-26T21:55:17.047Z,12.60
2022-09-26T21:58:24.139Z,12.40
2022-09-26T22:04:28.369Z,12.30
2022-09-26T22:07:30.376Z,12.20
2022-09-26T22:10:32.245Z,12.20
2022-09-26T22:13:36.549Z,12.10
2022-09-26T22:16:38.468Z,12.10
2022-09-26T22:25:49.456Z,11.90
2022-09-26T22:34:55.998Z,12.10
2022-09-26T22:41:02.113Z,12.10
2022-09-26T22:44:04.047Z,12.10
2022-09-26T22:47:05.969Z,12.00
2022-09-26T22:50:08.523Z,12.00
2022-09-26T22:53:10.486Z,11.90
2022-09-26T22:56:14.912Z,11.90
2022-09-26T22:59:16.913Z,11.90
2022-09-26T23:05:21.176Z,11.80
2022-09-26T23:08:23.008Z,11.80
2022-09-26T23:14:27.258Z,11.80
2022-09-26T23:17:29.768Z,11.70
2022-09-26T23:20:31.540Z,11.70
2022-09-26T23:23:33.562Z,11.70
2022-09-26T23:26:35.457Z,11.70
2022-09-26T23:29:37.302Z,11.70
2022-09-26T23:32:39.191Z,11.80
2022-09-26T23:38:43.424Z,11.70
2022-09-26T23:44:47.583Z,11.40
2022-09-26T23:50:51.787Z,11.50
2022-09-26T23:53:54.415Z,11.40
2022-09-26T23:56:56.318Z,11.30
